createdAt,value
2023-02-22T00:01:51.119Z,6.47
2023-02-22T00:04:53.793Z,5.78
2023-02-22T00:07:58.524Z,4.28
2023-02-22T00:11:08.330Z,4.70
2023-02-22T00:14:09.866Z,4.65
2023-02-22T00:17:13.490Z,4.97
2023-02-22T00:20:19.911Z,5.07
2023-02-22T00:23:23.021Z,5.28
2023-02-22T00:26:24.524Z,4.90
2023-02-22T00:29:26.500Z,4.53
2023-02-22T00:32:27.997Z,4.70
2023-02-22T00:35:30.971Z,6.47
2023-02-22T00:38:32.594Z,4.38
2023-02-22T00:41:34.361Z,6.43
2023-02-22T00:44:37.675Z,7.43
2023-02-22T00:47:39.209Z,5.10
2023-02-22T00:50:40.842Z,7.15
2023-02-22T00:53:42.847Z,4.85
2023-02-22T00:56:44.296Z,4.90
2023-02-22T00:59:45.777Z,6.05
2023-02-22T01:02:50.692Z,6.03
2023-02-22T01:05:52.483Z,7.72
2023-02-22T01:08:53.944Z,5.35
2023-02-22T01:11:56.789Z,5.97
2023-02-22T01:14:58.381Z,5.13
2023-02-22T01:18:00.033Z,5.88
2023-02-22T01:21:02.470Z,4.78
2023-02-22T01:24:04.122Z,6.13
2023-02-22T01:27:05.604Z,4.13
2023-02-22T01:30:08.526Z,4.07
2023-02-22T01:33:12.722Z,4.35
2023-02-22T01:39:17.807Z,5.38
2023-02-22T01:42:19.430Z,5.75
2023-02-22T01:45:35.648Z,6.30
2023-02-22T01:49:00.603Z,6.53
2023-02-22T01:52:05.559Z,4.03
2023-02-22T01:55:07.277Z,4.97
2023-02-22T01:58:09.590Z,5.57
2023-02-22T02:01:13.170Z,5.38
2023-02-22T02:04:20.699Z,3.65
2023-02-22T02:07:23.945Z,5.45
2023-02-22T02:10:28.008Z,3.20
2023-02-22T02:13:29.797Z,8.15
2023-02-22T02:16:41.834Z,8.20
2023-02-22T02:19:44.634Z,5.43
2023-02-22T02:22:54.832Z,4.07
2023-02-22T02:26:23.740Z,5.65
2023-02-22T02:29:43.980Z,4.20
2023-02-22T02:32:53.974Z,5.88
2023-02-22T02:36:18.237Z,6.10
2023-02-22T02:39:32.044Z,7.60
2023-02-22T02:42:38.757Z,6.75
2023-02-22T02:45:47.540Z,6.40
2023-02-22T02:48:58.537Z,8.45
2023-02-22T02:52:02.732Z,5.45
2023-02-22T02:58:07.946Z,6.82
2023-02-22T03:01:12.804Z,6.93
2023-02-22T03:04:40.386Z,6.75
2023-02-22T03:08:03.530Z,6.53
2023-02-22T03:11:15.291Z,6.68
2023-02-22T03:14:42.569Z,5.35
2023-02-22T03:17:47.704Z,7.68
2023-02-22T03:21:39.417Z,6.60
2023-02-22T03:24:55.898Z,5.32
2023-02-22T03:28:03.419Z,7.95
2023-02-22T03:31:10.912Z,4.75
2023-02-22T03:34:22.416Z,6.97
2023-02-22T03:37:29.067Z,5.57
2023-02-22T03:40:39.408Z,6.43
2023-02-22T03:43:49.393Z,7.45
2023-02-22T03:46:56.788Z,9.73
2023-02-22T03:50:08.943Z,6.13
2023-02-22T03:53:11.654Z,4.85
2023-02-22T03:59:25.378Z,7.55
2023-02-22T04:02:26.896Z,5.93
2023-02-22T04:05:28.442Z,5.13
2023-02-22T04:08:31.686Z,6.38
2023-02-22T04:11:34.004Z,6.05
2023-02-22T04:14:35.909Z,7.45
2023-02-22T04:17:37.364Z,8.25
2023-02-22T04:20:39.747Z,6.97
2023-02-22T04:23:45.230Z,6.05
2023-02-22T04:26:47.309Z,6.80
2023-02-22T04:29:50.035Z,7.25
2023-02-22T04:32:51.906Z,7.95
2023-02-22T04:35:57.686Z,7.07
2023-02-22T04:39:00.271Z,5.65
2023-02-22T04:45:07.908Z,6.90
2023-02-22T04:48:10.742Z,6.82
2023-02-22T04:51:13.033Z,6.07
2023-02-22T04:54:22.514Z,6.50
2023-02-22T04:57:24.356Z,7.55
2023-02-22T05:00:26.088Z,6.38
2023-02-22T05:03:31.888Z,5.57
2023-02-22T05:06:33.846Z,5.03
2023-02-22T05:09:35.291Z,7.65
2023-02-22T05:12:37.139Z,5.78
2023-02-22T05:15:38.651Z,9.48
2023-02-22T05:18:40.150Z,7.80
2023-02-22T05:21:41.689Z,6.70
2023-02-22T05:24:43.839Z,9.23
2023-02-22T05:27:45.274Z,7.53
2023-02-22T05:30:46.921Z,6.13
2023-02-22T05:33:48.510Z,7.32
2023-02-22T05:36:50.075Z,6.88
2023-02-22T05:39:51.557Z,5.97
2023-02-22T05:42:53.412Z,9.43
2023-02-22T05:45:55.631Z,7.88
2023-02-22T05:48:57.193Z,7.07
2023-02-22T05:51:59.835Z,11.02
2023-02-22T05:55:01.375Z,9.63
2023-02-22T05:58:05.729Z,9.90
2023-02-22T06:01:07.271Z,9.30
2023-02-22T06:04:09.195Z,8.82
2023-02-22T06:07:10.686Z,10.38
2023-02-22T06:10:13.416Z,8.10
2023-02-22T06:13:14.853Z,8.05
2023-02-22T06:16:16.426Z,8.52
2023-02-22T06:19:17.943Z,9.82
2023-02-22T06:22:19.942Z,8.70
2023-02-22T06:25:24.195Z,10.07
2023-02-22T06:28:26.328Z,6.53
2023-02-22T06:31:27.934Z,8.75
2023-02-22T06:34:29.455Z,9.30
2023-02-22T06:37:31.020Z,8.43
2023-02-22T06:40:32.491Z,7.95
2023-02-22T06:43:33.976Z,8.13
2023-02-22T06:46:35.431Z,9.48
2023-02-22T06:49:37.023Z,8.15
2023-02-22T06:52:42.676Z,9.48
2023-02-22T06:55:44.211Z,8.95
2023-02-22T06:58:45.686Z,8.93
2023-02-22T07:01:47.131Z,9.00
2023-02-22T07:04:48.569Z,6.05
2023-02-22T07:07:52.684Z,9.18
2023-02-22T07:13:55.830Z,8.38
2023-02-22T07:16:57.313Z,8.73
2023-02-22T07:19:58.748Z,11.07
2023-02-22T07:23:01.228Z,13.93
2023-02-22T07:26:05.403Z,9.38
2023-02-22T07:32:08.602Z,12.65
2023-02-22T07:35:18.957Z,9.65
2023-02-22T07:38:21.101Z,15.52
2023-02-22T07:41:23.042Z,17.67
2023-02-22T07:44:24.509Z,18.08
2023-02-22T07:47:25.950Z,10.18
2023-02-22T07:50:30.669Z,12.32
2023-02-22T07:53:33.563Z,12.80
2023-02-22T07:56:35.026Z,11.20
2023-02-22T07:59:36.613Z,14.60
2023-02-22T08:02:38.117Z,8.65
2023-02-22T08:05:41.540Z,13.05
2023-02-22T08:08:43.012Z,9.55
2023-02-22T08:11:44.462Z,8.57
2023-02-22T08:14:45.992Z,9.68
2023-02-22T08:17:47.494Z,10.30
2023-02-22T08:20:51.915Z,13.05
2023-02-22T08:23:54.268Z,9.60
2023-02-22T08:26:55.869Z,9.50
2023-02-22T08:29:57.380Z,12.52
2023-02-22T08:32:59.579Z,12.38
2023-02-22T08:36:01.781Z,7.32
2023-02-22T08:39:03.324Z,6.85
2023-02-22T08:42:05.112Z,8.15
2023-02-22T08:45:07.087Z,7.43
2023-02-22T08:48:08.544Z,8.73
2023-02-22T08:51:09.964Z,13.25
2023-02-22T08:54:11.560Z,9.20
2023-02-22T08:57:13.555Z,13.00
2023-02-22T09:00:15.796Z,11.38
2023-02-22T09:03:17.421Z,9.45
2023-02-22T09:06:19.427Z,13.13
2023-02-22T09:09:21.482Z,9.13
2023-02-22T09:12:23.074Z,21.73
2023-02-22T09:15:25.651Z,12.85
2023-02-22T09:18:35.974Z,11.73
2023-02-22T09:21:45.017Z,8.45
2023-02-22T09:24:46.496Z,21.52
2023-02-22T09:27:53.285Z,14.40
2023-02-22T09:30:54.817Z,8.50
2023-02-22T09:33:56.373Z,8.88
2023-02-22T09:36:58.177Z,20.20
2023-02-22T09:39:59.803Z,17.00
2023-02-22T09:43:16.826Z,12.13
2023-02-22T09:46:45.594Z,9.23
2023-02-22T09:50:02.299Z,17.02
2023-02-22T09:53:08.047Z,12.98
2023-02-22T09:56:17.406Z,10.05
2023-02-22T09:59:27.146Z,12.25
2023-02-22T10:02:41.335Z,12.80
2023-02-22T10:05:48.829Z,12.20
2023-02-22T10:08:56.348Z,15.98
2023-02-22T10:12:02.770Z,18.05
2023-02-22T10:15:25.988Z,14.15
2023-02-22T10:18:42.482Z,14.80
2023-02-22T10:21:55.618Z,16.42
2023-02-22T10:25:04.969Z,15.35
2023-02-22T10:28:21.671Z,16.90
2023-02-22T10:31:28.178Z,20.83
2023-02-22T10:34:40.595Z,29.08
2023-02-22T10:37:42.217Z,22.88
2023-02-22T10:40:49.381Z,23.27
2023-02-22T10:43:50.901Z,23.10
2023-02-22T10:46:53.314Z,23.48
2023-02-22T10:50:00.748Z,23.40
2023-02-22T10:53:02.731Z,24.38
2023-02-22T10:56:18.440Z,20.33
2023-02-22T10:59:35.770Z,26.85
2023-02-22T11:02:37.602Z,23.73
2023-02-22T11:05:41.151Z,24.25
2023-02-22T11:08:43.505Z,26.13
2023-02-22T11:11:47.646Z,17.90
2023-02-22T11:14:49.276Z,19.40
2023-02-22T11:17:53.769Z,18.77
2023-02-22T11:21:04.352Z,20.40
2023-02-22T11:24:13.000Z,19.48
2023-02-22T11:27:32.693Z,19.25
2023-02-22T11:30:36.062Z,18.38
2023-02-22T11:33:38.619Z,18.98
2023-02-22T11:36:43.290Z,16.40
2023-02-22T11:39:45.497Z,17.38
2023-02-22T11:42:47.218Z,21.90
2023-02-22T11:46:03.811Z,18.52
2023-02-22T11:49:17.302Z,17.45
2023-02-22T11:52:34.641Z,20.17
2023-02-22T11:55:59.823Z,17.55
2023-02-22T11:59:15.680Z,18.88
2023-02-22T12:02:33.641Z,17.15
2023-02-22T12:05:37.241Z,17.20
2023-02-22T12:08:38.738Z,17.77
2023-02-22T12:11:50.785Z,18.40
2023-02-22T12:15:45.597Z,20.50
2023-02-22T12:19:09.265Z,16.98
2023-02-22T12:22:19.437Z,22.00
2023-02-22T12:25:31.753Z,23.00
2023-02-22T12:28:52.177Z,21.70
2023-02-22T12:32:16.312Z,20.45
2023-02-22T12:35:29.775Z,21.70
2023-02-22T12:38:46.833Z,23.77
2023-02-22T12:41:52.766Z,20.05
2023-02-22T12:45:00.839Z,18.92
2023-02-22T12:48:36.389Z,17.42
2023-02-22T12:51:54.237Z,24.33
2023-02-22T12:55:05.339Z,20.20
2023-02-22T12:58:15.771Z,16.65
2023-02-22T13:01:23.386Z,19.27
2023-02-22T13:04:25.337Z,18.00
2023-02-22T13:08:01.833Z,21.80
2023-02-22T13:11:28.310Z,22.33
2023-02-22T13:14:51.344Z,20.17
2023-02-22T13:18:06.938Z,22.23
2023-02-22T13:21:17.767Z,19.65
2023-02-22T13:24:31.210Z,21.13
2023-02-22T13:27:59.302Z,21.67
2023-02-22T13:31:19.459Z,22.65
2023-02-22T13:34:41.281Z,22.83
2023-02-22T13:38:01.451Z,30.23
2023-02-22T13:41:34.977Z,23.20
2023-02-22T13:45:04.498Z,20.40
2023-02-22T13:48:12.146Z,19.42
2023-02-22T13:51:37.857Z,19.88
2023-02-22T13:54:57.336Z,21.08
2023-02-22T13:58:03.409Z,19.63
2023-02-22T14:01:04.869Z,22.75
2023-02-22T14:04:29.045Z,21.20
2023-02-22T14:07:33.705Z,20.63
2023-02-22T14:10:55.718Z,20.05
2023-02-22T14:14:00.870Z,18.02
2023-02-22T14:17:25.185Z,19.73
2023-02-22T14:20:35.157Z,20.30
2023-02-22T14:23:41.808Z,21.92
2023-02-22T14:26:56.380Z,22.35
2023-02-22T14:30:00.452Z,23.05
2023-02-22T14:36:04.331Z,19.35
2023-02-22T14:39:12.506Z,19.92
2023-02-22T14:42:19.290Z,17.85
2023-02-22T14:45:33.258Z,19.80
2023-02-22T14:48:43.204Z,20.65
2023-02-22T14:51:59.539Z,25.35
2023-02-22T14:55:25.492Z,18.25
2023-02-22T14:58:46.700Z,22.10
2023-02-22T15:01:58.707Z,30.80
2023-02-22T15:05:07.739Z,21.65
2023-02-22T15:08:09.523Z,22.45
2023-02-22T15:11:23.495Z,22.00
2023-02-22T15:14:26.806Z,18.55
2023-02-22T15:17:28.611Z,22.52
2023-02-22T15:20:30.317Z,23.02
2023-02-22T15:23:41.764Z,21.63
2023-02-22T15:26:59.240Z,21.83
2023-02-22T15:30:05.895Z,20.73
2023-02-22T15:33:16.854Z,18.45
2023-02-22T15:36:19.773Z,23.00
2023-02-22T15:39:33.100Z,25.08
2023-02-22T15:42:43.885Z,20.83
2023-02-22T15:45:46.040Z,20.73
2023-02-22T15:49:04.681Z,22.20
2023-02-22T15:52:26.510Z,21.50
2023-02-22T15:55:40.404Z,22.63
2023-02-22T15:58:44.101Z,23.42
2023-02-22T16:01:48.599Z,22.88
2023-02-22T16:04:59.781Z,23.73
2023-02-22T16:08:01.540Z,22.80
2023-02-22T16:11:12.892Z,23.20
2023-02-22T16:14:52.310Z,35.00
2023-02-22T16:18:02.115Z,33.67
2023-02-22T16:21:12.864Z,23.60
2023-02-22T16:24:26.453Z,26.02
2023-02-22T16:27:28.185Z,23.43
2023-02-22T16:30:35.360Z,25.75
2023-02-22T16:33:38.754Z,25.25
2023-02-22T16:36:44.758Z,28.52
2023-02-22T16:39:46.266Z,25.33
2023-02-22T16:42:48.088Z,26.23
2023-02-22T16:45:50.074Z,24.35
2023-02-22T16:48:51.696Z,29.05
2023-02-22T16:51:59.756Z,45.92
2023-02-22T16:55:02.052Z,32.78
2023-02-22T16:58:04.586Z,26.30
2023-02-22T17:01:06.499Z,24.95
2023-02-22T17:04:15.695Z,28.23
2023-02-22T17:07:24.039Z,23.05
2023-02-22T17:10:26.749Z,24.98
2023-02-22T17:13:29.369Z,26.77
2023-02-22T17:16:31.243Z,28.63
2023-02-22T17:19:32.772Z,25.70
2023-02-22T17:22:34.212Z,25.55
2023-02-22T17:25:38.452Z,24.27
2023-02-22T17:28:40.529Z,27.27
2023-02-22T17:31:42.163Z,29.40
2023-02-22T17:34:43.640Z,30.23
2023-02-22T17:37:47.072Z,29.70
2023-02-22T17:40:48.732Z,24.98
2023-02-22T17:43:50.640Z,28.55
2023-02-22T17:46:53.172Z,27.33
2023-02-22T17:49:57.885Z,27.98
2023-02-22T17:53:03.325Z,29.90
2023-02-22T17:56:10.495Z,30.25
2023-02-22T17:59:12.004Z,27.48
2023-02-22T18:02:13.537Z,25.00
2023-02-22T18:05:17.853Z,25.02
2023-02-22T18:08:19.664Z,32.03
2023-02-22T18:11:26.145Z,26.27
2023-02-22T18:14:27.743Z,25.80
2023-02-22T18:17:29.241Z,24.95
2023-02-22T18:20:31.436Z,27.98
2023-02-22T18:23:33.898Z,26.92
2023-02-22T18:26:35.621Z,24.10
2023-02-22T18:29:37.314Z,26.08
2023-02-22T18:32:39.700Z,23.42
2023-02-22T18:35:44.888Z,23.98
2023-02-22T18:38:46.396Z,22.98
2023-02-22T18:41:48.744Z,23.90
2023-02-22T18:44:51.088Z,23.45
2023-02-22T18:47:52.599Z,19.15
2023-02-22T18:50:54.093Z,16.67
2023-02-22T18:54:00.286Z,19.73
2023-02-22T18:57:02.154Z,16.70
2023-02-22T19:00:04.697Z,14.40
2023-02-22T19:03:07.501Z,16.20
2023-02-22T19:06:09.790Z,13.07
2023-02-22T19:09:11.300Z,13.15
2023-02-22T19:12:12.827Z,12.18
2023-02-22T19:15:14.458Z,12.55
2023-02-22T19:18:15.994Z,13.85
2023-02-22T19:21:19.003Z,17.17
2023-02-22T19:24:20.881Z,10.63
2023-02-22T19:27:22.580Z,11.50
2023-02-22T19:30:25.271Z,8.85
2023-02-22T19:33:27.752Z,9.48
2023-02-22T19:36:29.371Z,7.43
2023-02-22T19:39:32.872Z,9.90
2023-02-22T19:42:34.596Z,10.73
2023-02-22T19:45:39.669Z,11.85
2023-02-22T19:48:41.248Z,10.10
2023-02-22T19:51:42.757Z,9.73
2023-02-22T19:54:44.892Z,8.05
2023-02-22T19:57:47.127Z,7.97
2023-02-22T20:00:48.650Z,7.30
2023-02-22T20:04:10.960Z,11.15
2023-02-22T20:07:12.456Z,7.90
2023-02-22T20:10:15.062Z,8.32
2023-02-22T20:13:17.087Z,11.38
2023-02-22T20:16:18.753Z,8.63
2023-02-22T20:19:22.388Z,9.45
2023-02-22T20:22:23.998Z,8.73
2023-02-22T20:25:25.527Z,9.05
2023-02-22T20:28:27.365Z,10.80
2023-02-22T20:31:29.565Z,10.00
2023-02-22T20:34:33.195Z,10.95
2023-02-22T20:37:35.502Z,10.32
2023-02-22T20:40:37.445Z,10.25
2023-02-22T20:43:39.664Z,11.55
2023-02-22T20:46:42.837Z,9.68
2023-02-22T20:49:44.403Z,11.57
2023-02-22T20:52:45.829Z,10.65
2023-02-22T20:55:51.638Z,9.45
2023-02-22T20:58:55.358Z,8.77
2023-02-22T21:01:57.144Z,10.10
2023-02-22T21:04:58.741Z,11.32
2023-02-22T21:08:00.950Z,14.07
2023-02-22T21:11:02.456Z,9.65
2023-02-22T21:14:03.978Z,13.75
2023-02-22T21:17:07.365Z,9.43
2023-02-22T21:20:12.501Z,8.93
2023-02-22T21:23:15.820Z,10.32
2023-02-22T21:26:20.520Z,13.70
2023-02-22T21:29:21.971Z,15.27
2023-02-22T21:32:23.447Z,13.55
2023-02-22T21:35:25.758Z,15.35
2023-02-22T21:38:27.450Z,14.18
2023-02-22T21:41:30.590Z,12.07
2023-02-22T21:44:32.211Z,11.93
2023-02-22T21:47:35.801Z,13.23
2023-02-22T21:50:37.719Z,10.88
2023-02-22T21:53:46.909Z,13.05
2023-02-22T21:56:49.594Z,10.98
2023-02-22T21:59:53.093Z,11.50
2023-02-22T22:03:05.796Z,11.23
2023-02-22T22:06:10.783Z,10.10
2023-02-22T22:09:18.230Z,12.27
2023-02-22T22:12:25.883Z,10.50
2023-02-22T22:15:31.544Z,12.00
2023-02-22T22:18:33.058Z,8.73
2023-02-22T22:21:34.657Z,10.10
2023-02-22T22:24:36.822Z,10.90
2023-02-22T22:27:39.598Z,10.70
2023-02-22T22:30:41.038Z,10.27
2023-02-22T22:33:44.213Z,11.23
2023-02-22T22:36:46.100Z,11.52
2023-02-22T22:39:47.608Z,7.80
2023-02-22T22:42:49.093Z,9.48
2023-02-22T22:45:50.602Z,10.13
2023-02-22T22:48:52.096Z,7.45
2023-02-22T22:51:54.481Z,10.20
2023-02-22T22:54:55.967Z,9.88
2023-02-22T22:57:58.797Z,10.65
2023-02-22T23:01:06.677Z,12.18
2023-02-22T23:04:13.196Z,9.90
2023-02-22T23:07:14.661Z,8.95
2023-02-22T23:10:16.377Z,9.90
2023-02-22T23:13:17.839Z,12.00
2023-02-22T23:16:19.791Z,9.48
2023-02-22T23:19:21.321Z,8.63
2023-02-22T23:22:23.038Z,11.07
2023-02-22T23:25:24.837Z,12.32
2023-02-22T23:28:26.261Z,13.45
2023-02-22T23:31:32.199Z,9.88
2023-02-22T23:34:35.869Z,10.57
2023-02-22T23:37:39.794Z,12.90
2023-02-22T23:40:42.353Z,11.55
2023-02-22T23:43:45.244Z,9.60
2023-02-22T23:51:10.544Z,10.13
2023-02-22T23:54:14.915Z,7.97
2023-02-22T23:57:17.567Z,12.57
